sensor_id;sensor_type;location;lat;lon;timestamp;P1;durP1;ratioP1;P2;durP2;ratioP2
25175;SDS011;13135;55.166;61.286;2023-02-28T00:02:20;3.33;;;2.70;;
25175;SDS011;13135;55.166;61.286;2023-02-28T00:05:06;3.60;;;2.70;;
25175;SDS011;13135;55.166;61.286;2023-02-28T00:07:51;3.27;;;2.70;;
25175;SDS011;13135;55.166;61.286;2023-02-28T00:10:36;3.07;;;2.77;;
25175;SDS011;13135;55.166;61.286;2023-02-28T00:13:20;2.87;;;2.50;;
25175;SDS011;13135;55.166;61.286;2023-02-28T00:16:05;3.13;;;2.80;;
25175;SDS011;13135;55.166;61.286;2023-02-28T00:18:47;2.93;;;2.50;;
25175;SDS011;13135;55.166;61.286;2023-02-28T00:21:30;3.17;;;2.80;;
25175;SDS011;13135;55.166;61.286;2023-02-28T00:24:15;3.10;;;2.40;;
25175;SDS011;13135;55.166;61.286;2023-02-28T00:27:00;5.23;;;2.80;;
25175;SDS011;13135;55.166;61.286;2023-02-28T00:29:46;2.73;;;2.53;;
25175;SDS011;13135;55.166;61.286;2023-02-28T00:32:29;2.50;;;2.30;;
25175;SDS011;13135;55.166;61.286;2023-02-28T00:35:15;3.60;;;2.80;;
25175;SDS011;13135;55.166;61.286;2023-02-28T00:38:00;3.67;;;3.00;;
25175;SDS011;13135;55.166;61.286;2023-02-28T00:40:51;3.93;;;2.73;;
25175;SDS011;13135;55.166;61.286;2023-02-28T00:43:37;3.60;;;3.03;;
25175;SDS011;13135;55.166;61.286;2023-02-28T00:46:22;3.77;;;2.83;;
25175;SDS011;13135;55.166;61.286;2023-02-28T00:49:06;3.80;;;2.90;;
25175;SDS011;13135;55.166;61.286;2023-02-28T00:51:51;3.07;;;2.60;;
25175;SDS011;13135;55.166;61.286;2023-02-28T00:54:32;3.23;;;2.60;;
25175;SDS011;13135;55.166;61.286;2023-02-28T00:57:14;3.97;;;3.03;;
25175;SDS011;13135;55.166;61.286;2023-02-28T01:00:05;3.47;;;3.10;;
25175;SDS011;13135;55.166;61.286;2023-02-28T01:02:50;3.90;;;2.93;;
25175;SDS011;13135;55.166;61.286;2023-02-28T01:05:36;4.10;;;3.10;;
25175;SDS011;13135;55.166;61.286;2023-02-28T01:08:21;4.60;;;3.13;;
25175;SDS011;13135;55.166;61.286;2023-02-28T01:11:07;4.30;;;3.03;;
25175;SDS011;13135;55.166;61.286;2023-02-28T01:13:50;3.77;;;2.93;;
25175;SDS011;13135;55.166;61.286;2023-02-28T01:16:35;4.40;;;3.30;;
25175;SDS011;13135;55.166;61.286;2023-02-28T01:19:20;3.90;;;3.50;;
25175;SDS011;13135;55.166;61.286;2023-02-28T01:22:05;4.77;;;2.80;;
25175;SDS011;13135;55.166;61.286;2023-02-28T01:24:50;4.77;;;3.27;;
25175;SDS011;13135;55.166;61.286;2023-02-28T01:27:33;4.27;;;3.47;;
25175;SDS011;13135;55.166;61.286;2023-02-28T01:30:18;4.47;;;3.57;;
25175;SDS011;13135;55.166;61.286;2023-02-28T01:33:03;4.00;;;3.37;;
25175;SDS011;13135;55.166;61.286;2023-02-28T01:35:48;3.67;;;2.87;;
25175;SDS011;13135;55.166;61.286;2023-02-28T01:38:32;3.63;;;3.00;;
25175;SDS011;13135;55.166;61.286;2023-02-28T01:41:19;3.77;;;3.20;;
25175;SDS011;13135;55.166;61.286;2023-02-28T01:44:04;4.10;;;3.60;;
25175;SDS011;13135;55.166;61.286;2023-02-28T01:46:49;6.00;;;3.10;;
25175;SDS011;13135;55.166;61.286;2023-02-28T01:49:34;3.00;;;2.70;;
25175;SDS011;13135;55.166;61.286;2023-02-28T01:52:18;3.17;;;2.67;;
25175;SDS011;13135;55.166;61.286;2023-02-28T01:55:04;3.67;;;2.73;;
25175;SDS011;13135;55.166;61.286;2023-02-28T01:57:50;3.40;;;2.60;;
25175;SDS011;13135;55.166;61.286;2023-02-28T02:00:34;3.67;;;2.93;;
25175;SDS011;13135;55.166;61.286;2023-02-28T02:03:18;4.00;;;2.93;;
25175;SDS011;13135;55.166;61.286;2023-02-28T02:06:03;3.50;;;3.03;;
25175;SDS011;13135;55.166;61.286;2023-02-28T02:08:50;3.93;;;3.00;;
25175;SDS011;13135;55.166;61.286;2023-02-28T02:11:34;3.03;;;2.70;;
25175;SDS011;13135;55.166;61.286;2023-02-28T02:23:18;3.77;;;2.87;;
25175;SDS011;13135;55.166;61.286;2023-02-28T02:26:28;4.03;;;3.00;;
25175;SDS011;13135;55.166;61.286;2023-02-28T02:29:16;4.90;;;3.50;;
25175;SDS011;13135;55.166;61.286;2023-02-28T02:32:14;4.03;;;3.13;;
25175;SDS011;13135;55.166;61.286;2023-02-28T02:35:11;4.53;;;3.47;;
25175;SDS011;13135;55.166;61.286;2023-02-28T02:38:07;4.70;;;3.50;;
25175;SDS011;13135;55.166;61.286;2023-02-28T02:41:03;6.10;;;3.83;;
25175;SDS011;13135;55.166;61.286;2023-02-28T02:43:53;5.07;;;3.93;;
25175;SDS011;13135;55.166;61.286;2023-02-28T02:46:42;4.23;;;3.37;;
25175;SDS011;13135;55.166;61.286;2023-02-28T02:49:30;7.23;;;3.73;;
25175;SDS011;13135;55.166;61.286;2023-02-28T02:52:15;5.87;;;3.90;;
25175;SDS011;13135;55.166;61.286;2023-02-28T02:54:59;4.97;;;3.90;;
25175;SDS011;13135;55.166;61.286;2023-02-28T02:57:50;5.80;;;3.90;;
25175;SDS011;13135;55.166;61.286;2023-02-28T03:00:35;4.93;;;3.70;;
25175;SDS011;13135;55.166;61.286;2023-02-28T03:03:18;4.93;;;3.90;;
25175;SDS011;13135;55.166;61.286;2023-02-28T03:06:08;4.27;;;3.60;;
25175;SDS011;13135;55.166;61.286;2023-02-28T03:08:49;4.27;;;3.53;;
25175;SDS011;13135;55.166;61.286;2023-02-28T03:11:34;4.77;;;3.47;;
25175;SDS011;13135;55.166;61.286;2023-02-28T03:14:25;4.53;;;3.53;;
25175;SDS011;13135;55.166;61.286;2023-02-28T03:17:19;4.50;;;3.53;;
25175;SDS011;13135;55.166;61.286;2023-02-28T03:20:10;4.53;;;3.40;;
25175;SDS011;13135;55.166;61.286;2023-02-28T03:25:52;3.53;;;3.00;;
25175;SDS011;13135;55.166;61.286;2023-02-28T03:28:43;6.00;;;3.77;;
25175;SDS011;13135;55.166;61.286;2023-02-28T03:31:27;4.53;;;3.40;;
25175;SDS011;13135;55.166;61.286;2023-02-28T03:34:12;5.57;;;4.30;;
25175;SDS011;13135;55.166;61.286;2023-02-28T03:36:58;6.33;;;3.87;;
25175;SDS011;13135;55.166;61.286;2023-02-28T03:39:45;6.13;;;4.27;;
25175;SDS011;13135;55.166;61.286;2023-02-28T03:42:30;5.03;;;3.97;;
25175;SDS011;13135;55.166;61.286;2023-02-28T03:45:18;4.50;;;3.80;;
25175;SDS011;13135;55.166;61.286;2023-02-28T03:48:06;5.77;;;4.17;;
25175;SDS011;13135;55.166;61.286;2023-02-28T03:50:59;4.50;;;3.73;;
25175;SDS011;13135;55.166;61.286;2023-02-28T03:53:45;5.37;;;3.70;;
25175;SDS011;13135;55.166;61.286;2023-02-28T03:56:33;4.70;;;3.93;;
25175;SDS011;13135;55.166;61.286;2023-02-28T03:59:19;4.87;;;4.00;;
25175;SDS011;13135;55.166;61.286;2023-02-28T04:02:02;5.67;;;4.20;;
25175;SDS011;13135;55.166;61.286;2023-02-28T04:04:46;4.47;;;3.57;;
25175;SDS011;13135;55.166;61.286;2023-02-28T04:07:30;5.20;;;4.23;;
25175;SDS011;13135;55.166;61.286;2023-02-28T04:10:15;4.03;;;3.17;;
25175;SDS011;13135;55.166;61.286;2023-02-28T04:13:00;4.63;;;3.77;;
25175;SDS011;13135;55.166;61.286;2023-02-28T04:15:45;4.13;;;3.53;;
25175;SDS011;13135;55.166;61.286;2023-02-28T04:18:30;4.57;;;4.10;;
25175;SDS011;13135;55.166;61.286;2023-02-28T04:21:14;3.93;;;3.03;;
25175;SDS011;13135;55.166;61.286;2023-02-28T04:23:58;3.97;;;3.20;;
25175;SDS011;13135;55.166;61.286;2023-02-28T04:26:44;5.37;;;4.03;;
25175;SDS011;13135;55.166;61.286;2023-02-28T04:29:29;6.07;;;3.33;;
25175;SDS011;13135;55.166;61.286;2023-02-28T04:32:13;5.27;;;3.60;;
25175;SDS011;13135;55.166;61.286;2023-02-28T04:34:58;4.50;;;2.93;;
25175;SDS011;13135;55.166;61.286;2023-02-28T04:37:42;6.10;;;3.40;;
25175;SDS011;13135;55.166;61.286;2023-02-28T04:40:26;3.77;;;2.90;;
25175;SDS011;13135;55.166;61.286;2023-02-28T04:43:10;3.77;;;2.80;;
25175;SDS011;13135;55.166;61.286;2023-02-28T04:45:52;4.37;;;3.00;;
25175;SDS011;13135;55.166;61.286;2023-02-28T04:48:37;3.97;;;3.00;;
25175;SDS011;13135;55.166;61.286;2023-02-28T04:51:22;5.73;;;3.60;;
25175;SDS011;13135;55.166;61.286;2023-02-28T04:54:06;4.57;;;3.43;;
25175;SDS011;13135;55.166;61.286;2023-02-28T04:56:48;3.63;;;2.70;;
25175;SDS011;13135;55.166;61.286;2023-02-28T04:59:34;3.07;;;2.33;;
25175;SDS011;13135;55.166;61.286;2023-02-28T05:02:19;5.00;;;2.80;;
25175;SDS011;13135;55.166;61.286;2023-02-28T05:05:03;4.40;;;2.67;;
25175;SDS011;13135;55.166;61.286;2023-02-28T05:07:47;4.63;;;2.60;;
25175;SDS011;13135;55.166;61.286;2023-02-28T05:10:32;3.83;;;2.90;;
25175;SDS011;13135;55.166;61.286;2023-02-28T05:13:17;3.20;;;2.40;;
25175;SDS011;13135;55.166;61.286;2023-02-28T05:16:01;3.70;;;2.50;;
25175;SDS011;13135;55.166;61.286;2023-02-28T05:18:46;3.57;;;2.47;;
25175;SDS011;13135;55.166;61.286;2023-02-28T05:21:32;2.73;;;2.03;;
25175;SDS011;13135;55.166;61.286;2023-02-28T05:24:19;2.77;;;2.57;;
25175;SDS011;13135;55.166;61.286;2023-02-28T05:27:04;3.13;;;2.37;;
25175;SDS011;13135;55.166;61.286;2023-02-28T05:29:49;2.60;;;2.07;;
25175;SDS011;13135;55.166;61.286;2023-02-28T05:32:33;3.47;;;2.57;;
25175;SDS011;13135;55.166;61.286;2023-02-28T05:35:17;3.33;;;2.63;;
25175;SDS011;13135;55.166;61.286;2023-02-28T05:38:02;2.60;;;2.30;;
25175;SDS011;13135;55.166;61.286;2023-02-28T05:40:46;2.07;;;1.87;;
25175;SDS011;13135;55.166;61.286;2023-02-28T05:43:30;2.57;;;2.20;;
25175;SDS011;13135;55.166;61.286;2023-02-28T05:46:15;3.07;;;2.47;;
25175;SDS011;13135;55.166;61.286;2023-02-28T05:48:59;3.50;;;2.97;;
25175;SDS011;13135;55.166;61.286;2023-02-28T05:51:44;3.87;;;2.40;;
25175;SDS011;13135;55.166;61.286;2023-02-28T05:54:29;2.80;;;2.30;;
25175;SDS011;13135;55.166;61.286;2023-02-28T05:57:13;2.60;;;2.40;;
25175;SDS011;13135;55.166;61.286;2023-02-28T05:59:57;3.07;;;2.23;;
25175;SDS011;13135;55.166;61.286;2023-02-28T06:02:42;3.70;;;2.80;;
25175;SDS011;13135;55.166;61.286;2023-02-28T06:05:27;3.70;;;2.70;;
25175;SDS011;13135;55.166;61.286;2023-02-28T06:08:12;5.20;;;2.50;;
25175;SDS011;13135;55.166;61.286;2023-02-28T06:10:57;2.97;;;2.63;;
25175;SDS011;13135;55.166;61.286;2023-02-28T06:13:42;3.30;;;2.73;;
25175;SDS011;13135;55.166;61.286;2023-02-28T06:16:27;3.40;;;3.10;;
25175;SDS011;13135;55.166;61.286;2023-02-28T06:19:14;4.33;;;3.10;;
25175;SDS011;13135;55.166;61.286;2023-02-28T06:21:59;3.80;;;2.60;;
25175;SDS011;13135;55.166;61.286;2023-02-28T06:24:42;3.50;;;3.00;;
25175;SDS011;13135;55.166;61.286;2023-02-28T06:27:26;4.87;;;2.73;;
25175;SDS011;13135;55.166;61.286;2023-02-28T06:30:11;3.80;;;3.03;;
25175;SDS011;13135;55.166;61.286;2023-02-28T06:32:56;4.23;;;3.03;;
25175;SDS011;13135;55.166;61.286;2023-02-28T06:35:43;3.20;;;2.53;;
25175;SDS011;13135;55.166;61.286;2023-02-28T06:38:26;4.13;;;3.10;;
25175;SDS011;13135;55.166;61.286;2023-02-28T06:41:11;4.27;;;3.10;;
25175;SDS011;13135;55.166;61.286;2023-02-28T06:43:55;4.20;;;3.17;;
25175;SDS011;13135;55.166;61.286;2023-02-28T06:46:40;4.13;;;2.90;;
25175;SDS011;13135;55.166;61.286;2023-02-28T06:49:20;4.13;;;3.20;;
25175;SDS011;13135;55.166;61.286;2023-02-28T06:52:05;3.80;;;3.40;;
25175;SDS011;13135;55.166;61.286;2023-02-28T06:54:52;2.93;;;2.53;;
25175;SDS011;13135;55.166;61.286;2023-02-28T06:57:39;5.70;;;3.90;;
25175;SDS011;13135;55.166;61.286;2023-02-28T07:00:22;4.27;;;3.37;;
25175;SDS011;13135;55.166;61.286;2023-02-28T07:03:04;4.23;;;3.53;;
25175;SDS011;13135;55.166;61.286;2023-02-28T07:05:48;5.47;;;3.17;;
25175;SDS011;13135;55.166;61.286;2023-02-28T07:08:33;6.03;;;3.10;;
25175;SDS011;13135;55.166;61.286;2023-02-28T07:11:17;4.40;;;3.50;;
25175;SDS011;13135;55.166;61.286;2023-02-28T07:14:01;4.23;;;3.30;;
25175;SDS011;13135;55.166;61.286;2023-02-28T07:16:46;4.03;;;3.27;;
25175;SDS011;13135;55.166;61.286;2023-02-28T07:19:30;3.27;;;2.70;;
25175;SDS011;13135;55.166;61.286;2023-02-28T07:22:13;3.80;;;3.00;;
25175;SDS011;13135;55.166;61.286;2023-02-28T07:24:58;3.50;;;2.70;;
25175;SDS011;13135;55.166;61.286;2023-02-28T07:27:43;4.90;;;2.87;;
25175;SDS011;13135;55.166;61.286;2023-02-28T07:30:30;4.83;;;3.40;;
25175;SDS011;13135;55.166;61.286;2023-02-28T07:33:15;3.50;;;3.20;;
25175;SDS011;13135;55.166;61.286;2023-02-28T07:36:00;2.67;;;2.20;;
25175;SDS011;13135;55.166;61.286;2023-02-28T07:38:45;3.20;;;2.90;;
25175;SDS011;13135;55.166;61.286;2023-02-28T07:41:29;3.60;;;2.73;;
25175;SDS011;13135;55.166;61.286;2023-02-28T07:44:14;4.37;;;3.10;;
25175;SDS011;13135;55.166;61.286;2023-02-28T07:47:00;3.40;;;2.73;;
25175;SDS011;13135;55.166;61.286;2023-02-28T07:49:45;4.10;;;2.90;;
25175;SDS011;13135;55.166;61.286;2023-02-28T07:52:30;3.47;;;3.03;;
25175;SDS011;13135;55.166;61.286;2023-02-28T07:55:14;3.67;;;3.20;;
25175;SDS011;13135;55.166;61.286;2023-02-28T07:57:59;3.23;;;2.67;;
25175;SDS011;13135;55.166;61.286;2023-02-28T08:00:44;3.97;;;3.00;;
25175;SDS011;13135;55.166;61.286;2023-02-28T08:03:29;3.93;;;3.13;;
25175;SDS011;13135;55.166;61.286;2023-02-28T08:06:17;3.43;;;2.90;;
25175;SDS011;13135;55.166;61.286;2023-02-28T08:09:01;3.77;;;2.60;;
25175;SDS011;13135;55.166;61.286;2023-02-28T08:11:42;4.03;;;3.00;;
25175;SDS011;13135;55.166;61.286;2023-02-28T08:14:26;4.03;;;2.97;;
25175;SDS011;13135;55.166;61.286;2023-02-28T08:17:09;3.90;;;2.90;;
25175;SDS011;13135;55.166;61.286;2023-02-28T08:19:52;3.67;;;2.80;;
25175;SDS011;13135;55.166;61.286;2023-02-28T08:22:36;3.10;;;2.80;;
25175;SDS011;13135;55.166;61.286;2023-02-28T08:25:20;4.13;;;3.13;;
25175;SDS011;13135;55.166;61.286;2023-02-28T08:28:05;3.47;;;2.60;;
25175;SDS011;13135;55.166;61.286;2023-02-28T08:30:50;3.53;;;3.07;;
25175;SDS011;13135;55.166;61.286;2023-02-28T08:33:34;3.10;;;2.67;;
25175;SDS011;13135;55.166;61.286;2023-02-28T08:36:18;4.20;;;3.40;;
25175;SDS011;13135;55.166;61.286;2023-02-28T08:39:03;3.53;;;3.13;;
25175;SDS011;13135;55.166;61.286;2023-02-28T08:41:48;3.47;;;3.07;;
25175;SDS011;13135;55.166;61.286;2023-02-28T08:44:33;4.47;;;3.07;;
25175;SDS011;13135;55.166;61.286;2023-02-28T08:47:17;3.70;;;2.80;;
25175;SDS011;13135;55.166;61.286;2023-02-28T08:50:02;4.03;;;3.30;;
25175;SDS011;13135;55.166;61.286;2023-02-28T08:52:46;3.87;;;3.00;;
25175;SDS011;13135;55.166;61.286;2023-02-28T08:55:31;3.77;;;3.20;;
25175;SDS011;13135;55.166;61.286;2023-02-28T08:58:16;3.53;;;2.90;;
25175;SDS011;13135;55.166;61.286;2023-02-28T09:01:00;3.90;;;3.37;;
25175;SDS011;13135;55.166;61.286;2023-02-28T09:03:45;3.90;;;3.10;;
25175;SDS011;13135;55.166;61.286;2023-02-28T09:06:31;3.50;;;2.80;;
25175;SDS011;13135;55.166;61.286;2023-02-28T09:09:21;4.23;;;3.30;;
25175;SDS011;13135;55.166;61.286;2023-02-28T09:12:06;4.70;;;3.20;;
25175;SDS011;13135;55.166;61.286;2023-02-28T09:14:51;5.03;;;3.50;;
25175;SDS011;13135;55.166;61.286;2023-02-28T09:17:36;3.87;;;3.30;;
25175;SDS011;13135;55.166;61.286;2023-02-28T09:20:20;3.97;;;3.20;;
25175;SDS011;13135;55.166;61.286;2023-02-28T09:23:04;4.43;;;3.00;;
25175;SDS011;13135;55.166;61.286;2023-02-28T09:25:49;3.73;;;3.10;;
25175;SDS011;13135;55.166;61.286;2023-02-28T09:28:33;3.17;;;2.80;;
25175;SDS011;13135;55.166;61.286;2023-02-28T09:31:24;4.10;;;3.20;;
25175;SDS011;13135;55.166;61.286;2023-02-28T09:34:08;4.00;;;3.20;;
25175;SDS011;13135;55.166;61.286;2023-02-28T09:36:52;4.93;;;3.40;;
25175;SDS011;13135;55.166;61.286;2023-02-28T09:39:37;4.47;;;3.20;;
25175;SDS011;13135;55.166;61.286;2023-02-28T09:42:22;4.17;;;3.40;;
25175;SDS011;13135;55.166;61.286;2023-02-28T09:45:13;5.10;;;3.70;;
25175;SDS011;13135;55.166;61.286;2023-02-28T09:48:01;3.30;;;3.00;;
25175;SDS011;13135;55.166;61.286;2023-02-28T09:50:48;3.20;;;2.90;;
25175;SDS011;13135;55.166;61.286;2023-02-28T09:53:33;3.90;;;3.13;;
25175;SDS011;13135;55.166;61.286;2023-02-28T09:56:25;4.23;;;3.17;;
25175;SDS011;13135;55.166;61.286;2023-02-28T10:02:39;2.97;;;2.60;;
25175;SDS011;13135;55.166;61.286;2023-02-28T10:05:33;3.97;;;2.87;;
25175;SDS011;13135;55.166;61.286;2023-02-28T10:08:25;3.10;;;2.73;;
25175;SDS011;13135;55.166;61.286;2023-02-28T10:11:10;3.27;;;2.97;;
25175;SDS011;13135;55.166;61.286;2023-02-28T10:13:57;3.20;;;2.87;;
25175;SDS011;13135;55.166;61.286;2023-02-28T10:16:42;3.83;;;3.07;;
25175;SDS011;13135;55.166;61.286;2023-02-28T10:19:28;3.30;;;2.90;;
25175;SDS011;13135;55.166;61.286;2023-02-28T10:22:15;3.97;;;3.13;;
25175;SDS011;13135;55.166;61.286;2023-02-28T10:25:05;3.23;;;2.80;;
25175;SDS011;13135;55.166;61.286;2023-02-28T10:27:46;4.27;;;3.17;;
25175;SDS011;13135;55.166;61.286;2023-02-28T10:30:31;3.20;;;2.70;;
25175;SDS011;13135;55.166;61.286;2023-02-28T10:33:21;3.37;;;2.90;;
25175;SDS011;13135;55.166;61.286;2023-02-28T10:36:19;4.40;;;2.93;;
25175;SDS011;13135;55.166;61.286;2023-02-28T10:39:21;3.70;;;2.80;;
25175;SDS011;13135;55.166;61.286;2023-02-28T10:41:46;3.50;;;3.10;;
25175;SDS011;13135;55.166;61.286;2023-02-28T10:44:30;3.10;;;2.77;;
25175;SDS011;13135;55.166;61.286;2023-02-28T10:47:16;4.17;;;2.77;;
25175;SDS011;13135;55.166;61.286;2023-02-28T10:50:01;3.73;;;3.13;;
25175;SDS011;13135;55.166;61.286;2023-02-28T10:52:51;3.10;;;2.80;;
25175;SDS011;13135;55.166;61.286;2023-02-28T10:55:35;3.13;;;2.80;;
25175;SDS011;13135;55.166;61.286;2023-02-28T10:58:22;3.53;;;2.90;;
25175;SDS011;13135;55.166;61.286;2023-02-28T11:01:10;3.10;;;2.80;;
25175;SDS011;13135;55.166;61.286;2023-02-28T11:03:50;3.70;;;2.93;;
25175;SDS011;13135;55.166;61.286;2023-02-28T11:06:34;3.23;;;2.93;;
25175;SDS011;13135;55.166;61.286;2023-02-28T11:09:23;3.17;;;2.80;;
25175;SDS011;13135;55.166;61.286;2023-02-28T11:12:07;3.37;;;3.07;;
25175;SDS011;13135;55.166;61.286;2023-02-28T11:14:53;3.70;;;3.30;;
25175;SDS011;13135;55.166;61.286;2023-02-28T11:17:39;4.23;;;3.70;;
25175;SDS011;13135;55.166;61.286;2023-02-28T11:20:24;4.03;;;3.17;;
25175;SDS011;13135;55.166;61.286;2023-02-28T11:23:10;3.83;;;3.43;;
25175;SDS011;13135;55.166;61.286;2023-02-28T11:25:52;4.30;;;3.53;;
25175;SDS011;13135;55.166;61.286;2023-02-28T11:28:38;4.80;;;3.23;;
25175;SDS011;13135;55.166;61.286;2023-02-28T11:31:23;4.03;;;3.53;;
25175;SDS011;13135;55.166;61.286;2023-02-28T11:34:26;4.20;;;3.47;;
25175;SDS011;13135;55.166;61.286;2023-02-28T11:37:10;4.60;;;3.40;;
25175;SDS011;13135;55.166;61.286;2023-02-28T11:39:54;3.83;;;3.43;;
25175;SDS011;13135;55.166;61.286;2023-02-28T11:42:42;3.90;;;3.47;;
25175;SDS011;13135;55.166;61.286;2023-02-28T11:45:44;3.33;;;3.00;;
25175;SDS011;13135;55.166;61.286;2023-02-28T11:48:40;4.33;;;3.60;;
25175;SDS011;13135;55.166;61.286;2023-02-28T11:51:27;3.50;;;3.20;;
25175;SDS011;13135;55.166;61.286;2023-02-28T11:54:20;4.53;;;3.10;;
25175;SDS011;13135;55.166;61.286;2023-02-28T11:57:09;3.60;;;2.93;;
25175;SDS011;13135;55.166;61.286;2023-02-28T11:59:52;3.50;;;3.20;;
25175;SDS011;13135;55.166;61.286;2023-02-28T12:02:45;3.40;;;2.90;;
25175;SDS011;13135;55.166;61.286;2023-02-28T12:05:41;3.27;;;2.97;;
25175;SDS011;13135;55.166;61.286;2023-02-28T12:08:36;3.20;;;2.90;;
25175;SDS011;13135;55.166;61.286;2023-02-28T12:14:42;3.70;;;3.03;;
25175;SDS011;13135;55.166;61.286;2023-02-28T12:20:37;4.43;;;3.33;;
25175;SDS011;13135;55.166;61.286;2023-02-28T12:23:39;3.80;;;3.40;;
25175;SDS011;13135;55.166;61.286;2023-02-28T12:26:32;3.83;;;3.17;;
25175;SDS011;13135;55.166;61.286;2023-02-28T12:29:20;3.23;;;2.80;;
25175;SDS011;13135;55.166;61.286;2023-02-28T12:32:06;3.70;;;3.37;;
25175;SDS011;13135;55.166;61.286;2023-02-28T12:34:52;4.37;;;3.30;;
25175;SDS011;13135;55.166;61.286;2023-02-28T12:37:54;3.77;;;3.27;;
25175;SDS011;13135;55.166;61.286;2023-02-28T12:40:42;3.97;;;3.33;;
25175;SDS011;13135;55.166;61.286;2023-02-28T12:43:19;4.23;;;3.23;;
25175;SDS011;13135;55.166;61.286;2023-02-28T12:46:07;4.47;;;3.60;;
25175;SDS011;13135;55.166;61.286;2023-02-28T12:49:10;3.53;;;3.10;;
25175;SDS011;13135;55.166;61.286;2023-02-28T12:51:57;4.27;;;3.40;;
25175;SDS011;13135;55.166;61.286;2023-02-28T12:54:45;4.70;;;3.50;;
25175;SDS011;13135;55.166;61.286;2023-02-28T12:57:35;3.93;;;3.53;;
25175;SDS011;13135;55.166;61.286;2023-02-28T13:00:23;5.13;;;3.70;;
25175;SDS011;13135;55.166;61.286;2023-02-28T13:03:14;3.60;;;3.27;;
25175;SDS011;13135;55.166;61.286;2023-02-28T13:09:04;4.23;;;3.27;;
25175;SDS011;13135;55.166;61.286;2023-02-28T13:11:48;4.10;;;3.63;;
25175;SDS011;13135;55.166;61.286;2023-02-28T13:14:37;5.03;;;3.53;;
25175;SDS011;13135;55.166;61.286;2023-02-28T13:17:21;4.03;;;3.27;;
25175;SDS011;13135;55.166;61.286;2023-02-28T13:20:14;4.10;;;3.70;;
25175;SDS011;13135;55.166;61.286;2023-02-28T13:22:59;5.03;;;3.77;;
25175;SDS011;13135;55.166;61.286;2023-02-28T13:25:50;4.00;;;3.60;;
25175;SDS011;13135;55.166;61.286;2023-02-28T13:38:12;4.20;;;3.13;;
25175;SDS011;13135;55.166;61.286;2023-02-28T13:40:56;4.30;;;3.20;;
25175;SDS011;13135;55.166;61.286;2023-02-28T13:49:47;4.33;;;3.20;;
25175;SDS011;13135;55.166;61.286;2023-02-28T13:52:30;3.87;;;2.97;;
25175;SDS011;13135;55.166;61.286;2023-02-28T13:55:19;3.03;;;2.47;;
25175;SDS011;13135;55.166;61.286;2023-02-28T14:01:21;4.70;;;2.50;;
25175;SDS011;13135;55.166;61.286;2023-02-28T14:04:11;4.30;;;2.80;;
25175;SDS011;13135;55.166;61.286;2023-02-28T14:07:16;4.83;;;2.57;;
25175;SDS011;13135;55.166;61.286;2023-02-28T14:10:04;3.53;;;2.80;;
25175;SDS011;13135;55.166;61.286;2023-02-28T14:12:59;3.70;;;2.97;;
25175;SDS011;13135;55.166;61.286;2023-02-28T14:15:54;3.87;;;3.13;;
25175;SDS011;13135;55.166;61.286;2023-02-28T14:18:59;3.97;;;3.10;;
25175;SDS011;13135;55.166;61.286;2023-02-28T14:21:51;5.30;;;3.13;;
25175;SDS011;13135;55.166;61.286;2023-02-28T14:24:42;4.60;;;3.27;;
25175;SDS011;13135;55.166;61.286;2023-02-28T14:27:36;3.50;;;2.67;;
25175;SDS011;13135;55.166;61.286;2023-02-28T14:30:29;2.43;;;2.23;;
25175;SDS011;13135;55.166;61.286;2023-02-28T14:33:14;3.07;;;2.60;;
25175;SDS011;13135;55.166;61.286;2023-02-28T14:36:00;3.87;;;2.47;;
25175;SDS011;13135;55.166;61.286;2023-02-28T14:38:50;4.43;;;3.10;;
25175;SDS011;13135;55.166;61.286;2023-02-28T14:41:35;4.33;;;3.07;;
25175;SDS011;13135;55.166;61.286;2023-02-28T14:44:22;3.87;;;3.10;;
25175;SDS011;13135;55.166;61.286;2023-02-28T14:47:11;5.00;;;2.83;;
25175;SDS011;13135;55.166;61.286;2023-02-28T14:49:53;3.87;;;3.07;;
25175;SDS011;13135;55.166;61.286;2023-02-28T14:52:36;3.17;;;2.83;;
25175;SDS011;13135;55.166;61.286;2023-02-28T14:55:27;5.10;;;3.63;;
25175;SDS011;13135;55.166;61.286;2023-02-28T14:58:18;3.97;;;3.10;;
25175;SDS011;13135;55.166;61.286;2023-02-28T15:00:55;3.83;;;2.80;;
25175;SDS011;13135;55.166;61.286;2023-02-28T15:03:38;4.23;;;2.83;;
25175;SDS011;13135;55.166;61.286;2023-02-28T15:06:22;4.33;;;2.63;;
25175;SDS011;13135;55.166;61.286;2023-02-28T15:09:13;4.43;;;3.03;;
25175;SDS011;13135;55.166;61.286;2023-02-28T15:11:54;4.53;;;3.27;;
25175;SDS011;13135;55.166;61.286;2023-02-28T15:14:42;4.40;;;3.30;;
25175;SDS011;13135;55.166;61.286;2023-02-28T15:17:23;4.93;;;3.03;;
25175;SDS011;13135;55.166;61.286;2023-02-28T15:20:10;4.77;;;3.00;;
25175;SDS011;13135;55.166;61.286;2023-02-28T15:22:52;4.37;;;3.33;;
25175;SDS011;13135;55.166;61.286;2023-02-28T15:25:38;4.70;;;3.17;;
25175;SDS011;13135;55.166;61.286;2023-02-28T15:28:22;4.23;;;3.10;;
25175;SDS011;13135;55.166;61.286;2023-02-28T15:31:18;4.43;;;3.17;;
25175;SDS011;13135;55.166;61.286;2023-02-28T15:33:52;4.33;;;3.13;;
25175;SDS011;13135;55.166;61.286;2023-02-28T15:36:37;4.10;;;2.97;;
25175;SDS011;13135;55.166;61.286;2023-02-28T15:39:24;5.27;;;2.80;;
25175;SDS011;13135;55.166;61.286;2023-02-28T15:42:16;4.60;;;3.20;;
25175;SDS011;13135;55.166;61.286;2023-02-28T15:44:57;4.20;;;2.93;;
25175;SDS011;13135;55.166;61.286;2023-02-28T15:47:39;3.30;;;2.43;;
25175;SDS011;13135;55.166;61.286;2023-02-28T15:50:24;5.10;;;2.87;;
25175;SDS011;13135;55.166;61.286;2023-02-28T15:53:14;4.27;;;3.03;;
25175;SDS011;13135;55.166;61.286;2023-02-28T15:56:01;4.43;;;3.30;;
25175;SDS011;13135;55.166;61.286;2023-02-28T15:58:45;3.37;;;2.57;;
25175;SDS011;13135;55.166;61.286;2023-02-28T16:01:33;3.73;;;3.03;;
25175;SDS011;13135;55.166;61.286;2023-02-28T16:04:17;9.00;;;4.57;;
25175;SDS011;13135;55.166;61.286;2023-02-28T16:07:03;3.20;;;2.63;;
25175;SDS011;13135;55.166;61.286;2023-02-28T16:09:46;3.33;;;2.57;;
25175;SDS011;13135;55.166;61.286;2023-02-28T16:12:31;5.30;;;2.80;;
25175;SDS011;13135;55.166;61.286;2023-02-28T16:15:19;3.10;;;2.43;;
25175;SDS011;13135;55.166;61.286;2023-02-28T16:18:04;3.10;;;2.10;;
25175;SDS011;13135;55.166;61.286;2023-02-28T16:20:50;3.13;;;2.30;;
25175;SDS011;13135;55.166;61.286;2023-02-28T16:23:35;3.20;;;2.60;;
25175;SDS011;13135;55.166;61.286;2023-02-28T16:26:22;4.33;;;2.77;;
25175;SDS011;13135;55.166;61.286;2023-02-28T16:29:06;3.50;;;2.80;;
25175;SDS011;13135;55.166;61.286;2023-02-28T16:31:52;4.37;;;2.60;;
25175;SDS011;13135;55.166;61.286;2023-02-28T16:34:36;3.80;;;2.40;;
25175;SDS011;13135;55.166;61.286;2023-02-28T16:37:20;4.30;;;3.00;;
25175;SDS011;13135;55.166;61.286;2023-02-28T16:40:05;3.53;;;2.77;;
25175;SDS011;13135;55.166;61.286;2023-02-28T16:42:51;6.03;;;3.37;;
25175;SDS011;13135;55.166;61.286;2023-02-28T16:45:35;7.67;;;4.10;;
25175;SDS011;13135;55.166;61.286;2023-02-28T16:48:20;5.83;;;3.73;;
25175;SDS011;13135;55.166;61.286;2023-02-28T16:51:05;8.10;;;4.43;;
25175;SDS011;13135;55.166;61.286;2023-02-28T16:53:49;6.60;;;3.77;;
25175;SDS011;13135;55.166;61.286;2023-02-28T16:56:33;5.53;;;3.53;;
25175;SDS011;13135;55.166;61.286;2023-02-28T16:59:24;6.50;;;3.73;;
25175;SDS011;13135;55.166;61.286;2023-02-28T17:02:11;5.73;;;4.00;;
25175;SDS011;13135;55.166;61.286;2023-02-28T17:04:55;4.77;;;3.30;;
25175;SDS011;13135;55.166;61.286;2023-02-28T17:07:39;4.43;;;2.73;;
25175;SDS011;13135;55.166;61.286;2023-02-28T17:10:26;5.70;;;4.00;;